sensor_id;sensor_type;location;lat;lon;timestamp;P1;durP1;ratioP1;P2;durP2;ratioP2
9106;SDS011;4589;48.690;8.952;2023-02-28T00:01:20;7.68;;;4.78;;
9106;SDS011;4589;48.690;8.952;2023-02-28T00:03:46;6.50;;;3.67;;
9106;SDS011;4589;48.690;8.952;2023-02-28T00:06:12;8.13;;;3.70;;
9106;SDS011;4589;48.690;8.952;2023-02-28T00:08:38;4.77;;;3.40;;
9106;SDS011;4589;48.690;8.952;2023-02-28T00:11:05;10.65;;;5.18;;
9106;SDS011;4589;48.690;8.952;2023-02-28T00:13:33;10.52;;;5.07;;
9106;SDS011;4589;48.690;8.952;2023-02-28T00:16:10;7.03;;;4.75;;
9106;SDS011;4589;48.690;8.952;2023-02-28T00:18:38;4.72;;;2.90;;
9106;SDS011;4589;48.690;8.952;2023-02-28T00:21:04;3.20;;;2.90;;
9106;SDS011;4589;48.690;8.952;2023-02-28T00:23:30;3.90;;;3.30;;
9106;SDS011;4589;48.690;8.952;2023-02-28T00:25:56;5.03;;;3.35;;
9106;SDS011;4589;48.690;8.952;2023-02-28T00:28:22;3.83;;;2.93;;
9106;SDS011;4589;48.690;8.952;2023-02-28T00:30:49;4.25;;;3.70;;
9106;SDS011;4589;48.690;8.952;2023-02-28T00:33:15;4.85;;;3.40;;
9106;SDS011;4589;48.690;8.952;2023-02-28T00:35:40;4.80;;;3.60;;
9106;SDS011;4589;48.690;8.952;2023-02-28T00:38:06;4.45;;;3.20;;
9106;SDS011;4589;48.690;8.952;2023-02-28T00:40:32;8.83;;;3.70;;
9106;SDS011;4589;48.690;8.952;2023-02-28T00:42:58;5.90;;;4.00;;
9106;SDS011;4589;48.690;8.952;2023-02-28T00:45:24;5.13;;;4.00;;
9106;SDS011;4589;48.690;8.952;2023-02-28T00:47:50;7.97;;;4.40;;
9106;SDS011;4589;48.690;8.952;2023-02-28T00:50:17;7.43;;;3.57;;
9106;SDS011;4589;48.690;8.952;2023-02-28T00:52:44;4.97;;;3.97;;
9106;SDS011;4589;48.690;8.952;2023-02-28T00:55:09;4.40;;;3.40;;
9106;SDS011;4589;48.690;8.952;2023-02-28T00:57:35;4.27;;;2.83;;
9106;SDS011;4589;48.690;8.952;2023-02-28T01:00:02;4.68;;;3.20;;
9106;SDS011;4589;48.690;8.952;2023-02-28T01:02:28;4.53;;;3.58;;
9106;SDS011;4589;48.690;8.952;2023-02-28T01:04:54;3.50;;;2.90;;
9106;SDS011;4589;48.690;8.952;2023-02-28T01:07:21;4.55;;;3.15;;
9106;SDS011;4589;48.690;8.952;2023-02-28T01:09:47;4.00;;;3.28;;
9106;SDS011;4589;48.690;8.952;2023-02-28T01:12:14;3.95;;;3.20;;
9106;SDS011;4589;48.690;8.952;2023-02-28T01:14:39;4.13;;;3.47;;
9106;SDS011;4589;48.690;8.952;2023-02-28T01:17:05;3.83;;;2.92;;
9106;SDS011;4589;48.690;8.952;2023-02-28T01:19:31;3.60;;;2.63;;
9106;SDS011;4589;48.690;8.952;2023-02-28T01:21:59;5.78;;;2.75;;
9106;SDS011;4589;48.690;8.952;2023-02-28T01:24:27;3.45;;;3.15;;
9106;SDS011;4589;48.690;8.952;2023-02-28T01:26:53;5.33;;;2.93;;
9106;SDS011;4589;48.690;8.952;2023-02-28T01:29:19;3.40;;;3.10;;
9106;SDS011;4589;48.690;8.952;2023-02-28T01:31:44;4.33;;;3.27;;
9106;SDS011;4589;48.690;8.952;2023-02-28T01:34:10;4.20;;;3.40;;
9106;SDS011;4589;48.690;8.952;2023-02-28T01:36:35;4.87;;;3.40;;
9106;SDS011;4589;48.690;8.952;2023-02-28T01:39:02;6.07;;;3.30;;
9106;SDS011;4589;48.690;8.952;2023-02-28T01:41:29;6.07;;;3.60;;
9106;SDS011;4589;48.690;8.952;2023-02-28T01:44:00;4.22;;;3.35;;
9106;SDS011;4589;48.690;8.952;2023-02-28T01:46:31;5.85;;;3.17;;
9106;SDS011;4589;48.690;8.952;2023-02-28T01:48:59;3.70;;;3.38;;
9106;SDS011;4589;48.690;8.952;2023-02-28T01:51:31;5.32;;;3.42;;
9106;SDS011;4589;48.690;8.952;2023-02-28T01:54:11;3.53;;;2.90;;
9106;SDS011;4589;48.690;8.952;2023-02-28T01:56:38;4.25;;;3.38;;
9106;SDS011;4589;48.690;8.952;2023-02-28T01:59:06;3.92;;;3.15;;
9106;SDS011;4589;48.690;8.952;2023-02-28T02:01:32;4.83;;;4.30;;
9106;SDS011;4589;48.690;8.952;2023-02-28T02:04:00;4.17;;;3.67;;
9106;SDS011;4589;48.690;8.952;2023-02-28T02:06:33;3.92;;;3.30;;
9106;SDS011;4589;48.690;8.952;2023-02-28T02:09:03;3.53;;;3.03;;
9106;SDS011;4589;48.690;8.952;2023-02-28T02:11:29;6.95;;;3.38;;
9106;SDS011;4589;48.690;8.952;2023-02-28T02:14:06;4.18;;;3.33;;
9106;SDS011;4589;48.690;8.952;2023-02-28T02:24:44;7.78;;;3.70;;
9106;SDS011;4589;48.690;8.952;2023-02-28T02:35:51;3.97;;;3.60;;
9106;SDS011;4589;48.690;8.952;2023-02-28T02:40:56;8.93;;;4.87;;
9106;SDS011;4589;48.690;8.952;2023-02-28T02:43:35;5.15;;;3.90;;
9106;SDS011;4589;48.690;8.952;2023-02-28T02:46:04;4.10;;;3.65;;
9106;SDS011;4589;48.690;8.952;2023-02-28T02:48:43;5.57;;;4.60;;
9106;SDS011;4589;48.690;8.952;2023-02-28T02:51:12;4.40;;;3.72;;
9106;SDS011;4589;48.690;8.952;2023-02-28T02:53:56;4.82;;;3.65;;
9106;SDS011;4589;48.690;8.952;2023-02-28T02:56:27;5.75;;;3.65;;
9106;SDS011;4589;48.690;8.952;2023-02-28T02:58:55;5.85;;;4.85;;
9106;SDS011;4589;48.690;8.952;2023-02-28T03:01:26;5.78;;;4.38;;
9106;SDS011;4589;48.690;8.952;2023-02-28T03:03:57;5.35;;;3.90;;
9106;SDS011;4589;48.690;8.952;2023-02-28T03:06:24;4.65;;;4.05;;
9106;SDS011;4589;48.690;8.952;2023-02-28T03:08:50;7.65;;;4.55;;
9106;SDS011;4589;48.690;8.952;2023-02-28T03:11:16;6.30;;;4.30;;
9106;SDS011;4589;48.690;8.952;2023-02-28T03:13:44;5.03;;;4.30;;
9106;SDS011;4589;48.690;8.952;2023-02-28T03:19:03;6.93;;;4.57;;
9106;SDS011;4589;48.690;8.952;2023-02-28T03:21:37;5.80;;;4.35;;
9106;SDS011;4589;48.690;8.952;2023-02-28T03:24:43;5.90;;;4.55;;
9106;SDS011;4589;48.690;8.952;2023-02-28T03:27:23;5.60;;;4.40;;
9106;SDS011;4589;48.690;8.952;2023-02-28T03:29:52;8.60;;;4.82;;
9106;SDS011;4589;48.690;8.952;2023-02-28T03:33:05;7.38;;;4.57;;
9106;SDS011;4589;48.690;8.952;2023-02-28T03:35:27;5.63;;;4.18;;
9106;SDS011;4589;48.690;8.952;2023-02-28T03:37:58;5.50;;;4.10;;
9106;SDS011;4589;48.690;8.952;2023-02-28T03:40:31;6.25;;;5.07;;
9106;SDS011;4589;48.690;8.952;2023-02-28T03:42:59;5.35;;;4.47;;
9106;SDS011;4589;48.690;8.952;2023-02-28T03:45:28;10.43;;;4.63;;
9106;SDS011;4589;48.690;8.952;2023-02-28T03:48:15;7.20;;;4.50;;
9106;SDS011;4589;48.690;8.952;2023-02-28T03:50:47;4.88;;;4.45;;
9106;SDS011;4589;48.690;8.952;2023-02-28T03:53:15;5.93;;;4.68;;
9106;SDS011;4589;48.690;8.952;2023-02-28T03:55:42;6.53;;;4.15;;
9106;SDS011;4589;48.690;8.952;2023-02-28T03:58:12;5.53;;;4.35;;
9106;SDS011;4589;48.690;8.952;2023-02-28T04:00:52;5.53;;;4.80;;
9106;SDS011;4589;48.690;8.952;2023-02-28T04:03:18;6.18;;;5.00;;
9106;SDS011;4589;48.690;8.952;2023-02-28T04:05:54;6.97;;;4.80;;
9106;SDS011;4589;48.690;8.952;2023-02-28T04:08:21;6.78;;;4.90;;
9106;SDS011;4589;48.690;8.952;2023-02-28T04:10:49;10.27;;;5.43;;
9106;SDS011;4589;48.690;8.952;2023-02-28T04:13:17;7.32;;;4.95;;
9106;SDS011;4589;48.690;8.952;2023-02-28T04:15:42;6.70;;;5.30;;
9106;SDS011;4589;48.690;8.952;2023-02-28T04:18:11;6.75;;;4.78;;
9106;SDS011;4589;48.690;8.952;2023-02-28T04:20:36;7.40;;;4.60;;
9106;SDS011;4589;48.690;8.952;2023-02-28T04:23:02;7.60;;;5.13;;
9106;SDS011;4589;48.690;8.952;2023-02-28T04:25:28;7.83;;;5.70;;
9106;SDS011;4589;48.690;8.952;2023-02-28T04:27:54;6.97;;;5.13;;
9106;SDS011;4589;48.690;8.952;2023-02-28T04:30:20;9.40;;;6.30;;
9106;SDS011;4589;48.690;8.952;2023-02-28T04:32:46;6.57;;;4.87;;
9106;SDS011;4589;48.690;8.952;2023-02-28T04:35:12;7.90;;;5.37;;
9106;SDS011;4589;48.690;8.952;2023-02-28T04:37:38;7.03;;;5.30;;
9106;SDS011;4589;48.690;8.952;2023-02-28T04:40:04;5.73;;;4.57;;
9106;SDS011;4589;48.690;8.952;2023-02-28T04:42:30;8.10;;;5.18;;
9106;SDS011;4589;48.690;8.952;2023-02-28T04:45:00;9.48;;;5.95;;
9106;SDS011;4589;48.690;8.952;2023-02-28T04:47:26;5.20;;;4.70;;
9106;SDS011;4589;48.690;8.952;2023-02-28T04:49:52;7.00;;;5.47;;
9106;SDS011;4589;48.690;8.952;2023-02-28T04:52:18;9.37;;;5.17;;
9106;SDS011;4589;48.690;8.952;2023-02-28T04:54:44;10.50;;;6.25;;
9106;SDS011;4589;48.690;8.952;2023-02-28T04:57:10;8.48;;;5.03;;
9106;SDS011;4589;48.690;8.952;2023-02-28T04:59:36;6.95;;;5.10;;
9106;SDS011;4589;48.690;8.952;2023-02-28T05:02:02;7.27;;;5.27;;
9106;SDS011;4589;48.690;8.952;2023-02-28T05:04:31;7.35;;;5.95;;
9106;SDS011;4589;48.690;8.952;2023-02-28T05:06:59;5.90;;;5.13;;
9106;SDS011;4589;48.690;8.952;2023-02-28T05:09:25;8.60;;;5.63;;
9106;SDS011;4589;48.690;8.952;2023-02-28T05:11:51;6.20;;;5.30;;
9106;SDS011;4589;48.690;8.952;2023-02-28T05:14:16;6.17;;;5.07;;
9106;SDS011;4589;48.690;8.952;2023-02-28T05:16:42;8.10;;;5.73;;
9106;SDS011;4589;48.690;8.952;2023-02-28T05:19:08;7.32;;;5.13;;
9106;SDS011;4589;48.690;8.952;2023-02-28T05:21:35;7.47;;;5.60;;
9106;SDS011;4589;48.690;8.952;2023-02-28T05:24:03;6.78;;;5.25;;
9106;SDS011;4589;48.690;8.952;2023-02-28T05:26:30;8.73;;;5.50;;
9106;SDS011;4589;48.690;8.952;2023-02-28T05:28:56;7.10;;;5.18;;
9106;SDS011;4589;48.690;8.952;2023-02-28T05:31:22;6.90;;;5.37;;
9106;SDS011;4589;48.690;8.952;2023-02-28T05:33:48;8.98;;;6.38;;
9106;SDS011;4589;48.690;8.952;2023-02-28T05:36:14;7.73;;;5.43;;
9106;SDS011;4589;48.690;8.952;2023-02-28T05:38:40;10.73;;;6.03;;
9106;SDS011;4589;48.690;8.952;2023-02-28T05:41:06;13.90;;;6.30;;
9106;SDS011;4589;48.690;8.952;2023-02-28T05:43:33;8.80;;;6.10;;
9106;SDS011;4589;48.690;8.952;2023-02-28T05:46:01;7.75;;;5.75;;
9106;SDS011;4589;48.690;8.952;2023-02-28T05:48:27;11.48;;;5.55;;
9106;SDS011;4589;48.690;8.952;2023-02-28T05:50:53;8.77;;;5.80;;
9106;SDS011;4589;48.690;8.952;2023-02-28T05:53:18;9.67;;;6.50;;
9106;SDS011;4589;48.690;8.952;2023-02-28T05:55:44;8.03;;;5.60;;
9106;SDS011;4589;48.690;8.952;2023-02-28T05:58:10;8.87;;;6.30;;
9106;SDS011;4589;48.690;8.952;2023-02-28T06:00:36;7.17;;;6.20;;
9106;SDS011;4589;48.690;8.952;2023-02-28T06:03:02;7.93;;;6.17;;
9106;SDS011;4589;48.690;8.952;2023-02-28T06:05:28;8.52;;;6.55;;
9106;SDS011;4589;48.690;8.952;2023-02-28T06:07:54;11.97;;;7.67;;
9106;SDS011;4589;48.690;8.952;2023-02-28T06:10:20;10.53;;;6.90;;
9106;SDS011;4589;48.690;8.952;2023-02-28T06:12:46;9.50;;;6.90;;
9106;SDS011;4589;48.690;8.952;2023-02-28T06:15:12;10.83;;;6.33;;
9106;SDS011;4589;48.690;8.952;2023-02-28T06:17:39;9.25;;;6.80;;
9106;SDS011;4589;48.690;8.952;2023-02-28T06:20:06;8.73;;;6.35;;
9106;SDS011;4589;48.690;8.952;2023-02-28T06:22:33;8.23;;;5.85;;
9106;SDS011;4589;48.690;8.952;2023-02-28T06:24:59;10.50;;;6.70;;
9106;SDS011;4589;48.690;8.952;2023-02-28T06:27:25;11.43;;;7.70;;
9106;SDS011;4589;48.690;8.952;2023-02-28T06:29:53;10.37;;;6.83;;
9106;SDS011;4589;48.690;8.952;2023-02-28T06:32:20;7.95;;;6.28;;
9106;SDS011;4589;48.690;8.952;2023-02-28T06:34:46;10.07;;;6.10;;
9106;SDS011;4589;48.690;8.952;2023-02-28T06:37:12;10.17;;;6.57;;
9106;SDS011;4589;48.690;8.952;2023-02-28T06:39:38;9.95;;;6.72;;
9106;SDS011;4589;48.690;8.952;2023-02-28T06:42:04;9.32;;;6.32;;
9106;SDS011;4589;48.690;8.952;2023-02-28T06:44:30;10.60;;;7.17;;
9106;SDS011;4589;48.690;8.952;2023-02-28T06:47:00;10.65;;;7.25;;
9106;SDS011;4589;48.690;8.952;2023-02-28T06:49:28;11.90;;;7.95;;
9106;SDS011;4589;48.690;8.952;2023-02-28T06:51:54;12.77;;;7.65;;
9106;SDS011;4589;48.690;8.952;2023-02-28T06:54:20;11.50;;;7.33;;
9106;SDS011;4589;48.690;8.952;2023-02-28T06:56:45;16.40;;;8.50;;
9106;SDS011;4589;48.690;8.952;2023-02-28T06:59:12;10.82;;;7.20;;
9106;SDS011;4589;48.690;8.952;2023-02-28T07:01:38;14.90;;;7.37;;
9106;SDS011;4589;48.690;8.952;2023-02-28T07:04:04;9.32;;;7.03;;
9106;SDS011;4589;48.690;8.952;2023-02-28T07:06:30;11.40;;;8.13;;
9106;SDS011;4589;48.690;8.952;2023-02-28T07:08:56;14.98;;;7.15;;
9106;SDS011;4589;48.690;8.952;2023-02-28T07:11:23;12.68;;;7.93;;
9106;SDS011;4589;48.690;8.952;2023-02-28T07:13:50;17.33;;;7.72;;
9106;SDS011;4589;48.690;8.952;2023-02-28T07:16:16;10.32;;;7.38;;
9106;SDS011;4589;48.690;8.952;2023-02-28T07:18:42;8.75;;;6.18;;
9106;SDS011;4589;48.690;8.952;2023-02-28T07:21:09;12.50;;;8.65;;
9106;SDS011;4589;48.690;8.952;2023-02-28T07:23:35;13.73;;;8.80;;
9106;SDS011;4589;48.690;8.952;2023-02-28T07:26:03;11.70;;;7.55;;
9106;SDS011;4589;48.690;8.952;2023-02-28T07:28:29;13.02;;;8.45;;
9106;SDS011;4589;48.690;8.952;2023-02-28T07:30:55;8.80;;;6.17;;
9106;SDS011;4589;48.690;8.952;2023-02-28T07:33:21;10.88;;;7.35;;
9106;SDS011;4589;48.690;8.952;2023-02-28T07:35:48;10.90;;;7.10;;
9106;SDS011;4589;48.690;8.952;2023-02-28T07:38:14;8.10;;;6.27;;
9106;SDS011;4589;48.690;8.952;2023-02-28T07:40:40;10.23;;;6.60;;
9106;SDS011;4589;48.690;8.952;2023-02-28T07:43:06;15.80;;;8.17;;
9106;SDS011;4589;48.690;8.952;2023-02-28T07:45:32;16.73;;;9.73;;
9106;SDS011;4589;48.690;8.952;2023-02-28T07:47:59;12.88;;;7.25;;
9106;SDS011;4589;48.690;8.952;2023-02-28T07:50:25;8.05;;;6.63;;
9106;SDS011;4589;48.690;8.952;2023-02-28T07:52:55;12.07;;;8.05;;
9106;SDS011;4589;48.690;8.952;2023-02-28T07:55:21;12.40;;;7.07;;
9106;SDS011;4589;48.690;8.952;2023-02-28T07:57:47;10.33;;;7.40;;
9106;SDS011;4589;48.690;8.952;2023-02-28T08:00:13;11.17;;;7.53;;
9106;SDS011;4589;48.690;8.952;2023-02-28T08:02:39;13.05;;;7.38;;
9106;SDS011;4589;48.690;8.952;2023-02-28T08:05:05;13.07;;;8.30;;
9106;SDS011;4589;48.690;8.952;2023-02-28T08:07:31;11.20;;;7.95;;
9106;SDS011;4589;48.690;8.952;2023-02-28T08:09:58;13.07;;;8.73;;
9106;SDS011;4589;48.690;8.952;2023-02-28T08:12:24;13.38;;;8.63;;
9106;SDS011;4589;48.690;8.952;2023-02-28T08:14:49;11.47;;;8.30;;
9106;SDS011;4589;48.690;8.952;2023-02-28T08:17:15;12.83;;;7.90;;
9106;SDS011;4589;48.690;8.952;2023-02-28T08:19:41;11.37;;;7.57;;
9106;SDS011;4589;48.690;8.952;2023-02-28T08:22:07;13.45;;;8.98;;
9106;SDS011;4589;48.690;8.952;2023-02-28T08:24:33;17.70;;;9.07;;
9106;SDS011;4589;48.690;8.952;2023-02-28T08:26:59;18.03;;;9.33;;
9106;SDS011;4589;48.690;8.952;2023-02-28T08:29:25;16.30;;;11.00;;
9106;SDS011;4589;48.690;8.952;2023-02-28T08:31:51;12.73;;;7.70;;
9106;SDS011;4589;48.690;8.952;2023-02-28T08:34:17;13.82;;;8.50;;
9106;SDS011;4589;48.690;8.952;2023-02-28T08:36:43;12.17;;;8.30;;
9106;SDS011;4589;48.690;8.952;2023-02-28T08:39:10;11.00;;;7.47;;
9106;SDS011;4589;48.690;8.952;2023-02-28T08:41:36;15.57;;;9.65;;
9106;SDS011;4589;48.690;8.952;2023-02-28T08:44:02;17.00;;;9.97;;
9106;SDS011;4589;48.690;8.952;2023-02-28T08:46:28;12.63;;;8.38;;
9106;SDS011;4589;48.690;8.952;2023-02-28T08:48:55;10.40;;;7.75;;
9106;SDS011;4589;48.690;8.952;2023-02-28T08:51:25;14.48;;;9.98;;
9106;SDS011;4589;48.690;8.952;2023-02-28T08:53:54;13.57;;;8.70;;
9106;SDS011;4589;48.690;8.952;2023-02-28T08:56:20;11.40;;;8.20;;
9106;SDS011;4589;48.690;8.952;2023-02-28T08:58:47;12.23;;;7.40;;
9106;SDS011;4589;48.690;8.952;2023-02-28T09:01:15;10.85;;;7.90;;
9106;SDS011;4589;48.690;8.952;2023-02-28T09:03:46;14.95;;;8.90;;
9106;SDS011;4589;48.690;8.952;2023-02-28T09:06:13;13.35;;;8.30;;
9106;SDS011;4589;48.690;8.952;2023-02-28T09:08:39;18.30;;;10.20;;
9106;SDS011;4589;48.690;8.952;2023-02-28T09:11:06;13.52;;;9.50;;
9106;SDS011;4589;48.690;8.952;2023-02-28T09:13:32;12.82;;;7.95;;
9106;SDS011;4589;48.690;8.952;2023-02-28T09:15:59;14.10;;;10.02;;
9106;SDS011;4589;48.690;8.952;2023-02-28T09:18:26;9.05;;;7.03;;
9106;SDS011;4589;48.690;8.952;2023-02-28T09:20:53;13.43;;;7.75;;
9106;SDS011;4589;48.690;8.952;2023-02-28T09:23:19;11.48;;;8.13;;
9106;SDS011;4589;48.690;8.952;2023-02-28T09:25:46;17.77;;;9.05;;
9106;SDS011;4589;48.690;8.952;2023-02-28T09:28:13;14.02;;;8.05;;
9106;SDS011;4589;48.690;8.952;2023-02-28T09:30:46;14.75;;;9.10;;
9106;SDS011;4589;48.690;8.952;2023-02-28T09:33:13;13.25;;;9.75;;
9106;SDS011;4589;48.690;8.952;2023-02-28T09:35:39;12.15;;;8.10;;
9106;SDS011;4589;48.690;8.952;2023-02-28T09:38:05;13.97;;;7.80;;
9106;SDS011;4589;48.690;8.952;2023-02-28T09:40:34;16.38;;;9.32;;
9106;SDS011;4589;48.690;8.952;2023-02-28T09:43:01;12.77;;;8.05;;
9106;SDS011;4589;48.690;8.952;2023-02-28T09:45:32;11.20;;;8.07;;
9106;SDS011;4589;48.690;8.952;2023-02-28T09:47:59;12.82;;;8.60;;
9106;SDS011;4589;48.690;8.952;2023-02-28T09:50:36;15.30;;;8.80;;
9106;SDS011;4589;48.690;8.952;2023-02-28T09:53:06;10.98;;;8.10;;
9106;SDS011;4589;48.690;8.952;2023-02-28T09:55:42;15.50;;;8.07;;
9106;SDS011;4589;48.690;8.952;2023-02-28T09:58:22;13.18;;;8.10;;
9106;SDS011;4589;48.690;8.952;2023-02-28T10:00:54;14.43;;;8.02;;
9106;SDS011;4589;48.690;8.952;2023-02-28T10:04:07;13.93;;;8.77;;
9106;SDS011;4589;48.690;8.952;2023-02-28T10:06:19;15.23;;;9.30;;
9106;SDS011;4589;48.690;8.952;2023-02-28T10:09:01;11.00;;;8.52;;
9106;SDS011;4589;48.690;8.952;2023-02-28T10:11:40;14.88;;;9.02;;
9106;SDS011;4589;48.690;8.952;2023-02-28T10:14:15;15.90;;;8.35;;
9106;SDS011;4589;48.690;8.952;2023-02-28T10:16:43;14.30;;;8.48;;
9106;SDS011;4589;48.690;8.952;2023-02-28T10:19:30;11.85;;;8.02;;
9106;SDS011;4589;48.690;8.952;2023-02-28T10:22:23;12.18;;;7.95;;
9106;SDS011;4589;48.690;8.952;2023-02-28T10:24:52;11.32;;;7.82;;
9106;SDS011;4589;48.690;8.952;2023-02-28T10:27:20;11.48;;;6.82;;
9106;SDS011;4589;48.690;8.952;2023-02-28T10:29:51;17.77;;;8.70;;
9106;SDS011;4589;48.690;8.952;2023-02-28T10:32:19;12.38;;;9.25;;
9106;SDS011;4589;48.690;8.952;2023-02-28T10:37:23;12.27;;;7.95;;
9106;SDS011;4589;48.690;8.952;2023-02-28T10:39:49;12.07;;;8.30;;
9106;SDS011;4589;48.690;8.952;2023-02-28T10:42:19;13.68;;;8.45;;
9106;SDS011;4589;48.690;8.952;2023-02-28T10:44:46;12.80;;;8.88;;
9106;SDS011;4589;48.690;8.952;2023-02-28T10:47:15;11.50;;;8.07;;
9106;SDS011;4589;48.690;8.952;2023-02-28T10:49:49;16.15;;;10.35;;
9106;SDS011;4589;48.690;8.952;2023-02-28T10:52:33;14.80;;;9.85;;
9106;SDS011;4589;48.690;8.952;2023-02-28T10:55:19;12.02;;;9.00;;
9106;SDS011;4589;48.690;8.952;2023-02-28T10:57:47;11.25;;;7.70;;
9106;SDS011;4589;48.690;8.952;2023-02-28T11:00:18;21.70;;;9.88;;
9106;SDS011;4589;48.690;8.952;2023-02-28T11:02:46;12.67;;;8.00;;
9106;SDS011;4589;48.690;8.952;2023-02-28T11:05:30;13.90;;;8.10;;
9106;SDS011;4589;48.690;8.952;2023-02-28T11:08:13;13.48;;;8.38;;
9106;SDS011;4589;48.690;8.952;2023-02-28T11:10:45;11.67;;;9.07;;
9106;SDS011;4589;48.690;8.952;2023-02-28T11:13:21;14.15;;;8.85;;
9106;SDS011;4589;48.690;8.952;2023-02-28T11:15:54;10.80;;;8.23;;
9106;SDS011;4589;48.690;8.952;2023-02-28T11:19:04;9.57;;;7.33;;
9106;SDS011;4589;48.690;8.952;2023-02-28T11:21:15;13.25;;;8.48;;
9106;SDS011;4589;48.690;8.952;2023-02-28T11:23:56;13.20;;;8.40;;
9106;SDS011;4589;48.690;8.952;2023-02-28T11:26:37;15.30;;;9.05;;
9106;SDS011;4589;48.690;8.952;2023-02-28T11:29:11;12.53;;;8.50;;
9106;SDS011;4589;48.690;8.952;2023-02-28T11:31:37;13.33;;;8.93;;
9106;SDS011;4589;48.690;8.952;2023-02-28T11:34:10;12.57;;;8.50;;
9106;SDS011;4589;48.690;8.952;2023-02-28T11:36:49;16.07;;;9.43;;
9106;SDS011;4589;48.690;8.952;2023-02-28T11:39:16;11.13;;;8.10;;
9106;SDS011;4589;48.690;8.952;2023-02-28T11:47:24;13.40;;;8.20;;
9106;SDS011;4589;48.690;8.952;2023-02-28T11:52:30;10.70;;;8.60;;
9106;SDS011;4589;48.690;8.952;2023-02-28T12:03:12;11.43;;;8.10;;
9106;SDS011;4589;48.690;8.952;2023-02-28T12:13:26;11.60;;;8.80;;
9106;SDS011;4589;48.690;8.952;2023-02-28T12:23:53;12.83;;;11.03;;
9106;SDS011;4589;48.690;8.952;2023-02-28T12:28:57;11.60;;;8.87;;
9106;SDS011;4589;48.690;8.952;2023-02-28T12:34:52;12.37;;;10.07;;
9106;SDS011;4589;48.690;8.952;2023-02-28T12:37:33;15.20;;;11.80;;
9106;SDS011;4589;48.690;8.952;2023-02-28T12:40:04;11.23;;;8.57;;
9106;SDS011;4589;48.690;8.952;2023-02-28T12:42:32;10.77;;;8.00;;
9106;SDS011;4589;48.690;8.952;2023-02-28T12:45:01;12.43;;;8.90;;
9106;SDS011;4589;48.690;8.952;2023-02-28T12:47:32;12.03;;;8.40;;
9106;SDS011;4589;48.690;8.952;2023-02-28T12:50:05;11.60;;;8.20;;
9106;SDS011;4589;48.690;8.952;2023-02-28T12:52:35;13.43;;;8.87;;
9106;SDS011;4589;48.690;8.952;2023-02-28T12:55:07;12.47;;;9.90;;
9106;SDS011;4589;48.690;8.952;2023-02-28T12:57:42;12.70;;;9.70;;
9106;SDS011;4589;48.690;8.952;2023-02-28T13:00:22;10.73;;;8.77;;
9106;SDS011;4589;48.690;8.952;2023-02-28T13:07:47;12.10;;;8.33;;
9106;SDS011;4589;48.690;8.952;2023-02-28T13:10:43;13.73;;;9.47;;
9106;SDS011;4589;48.690;8.952;2023-02-28T13:13:28;13.10;;;9.57;;
9106;SDS011;4589;48.690;8.952;2023-02-28T13:18:31;11.33;;;8.30;;
9106;SDS011;4589;48.690;8.952;2023-02-28T13:21:04;12.93;;;8.20;;
9106;SDS011;4589;48.690;8.952;2023-02-28T13:23:37;11.90;;;8.40;;
9106;SDS011;4589;48.690;8.952;2023-02-28T13:26:03;11.37;;;7.87;;
9106;SDS011;4589;48.690;8.952;2023-02-28T13:31:13;10.30;;;8.43;;
9106;SDS011;4589;48.690;8.952;2023-02-28T13:44:05;10.93;;;7.83;;
9106;SDS011;4589;48.690;8.952;2023-02-28T14:08:34;12.97;;;8.70;;
9106;SDS011;4589;48.690;8.952;2023-02-28T14:11:08;12.93;;;9.57;;
9106;SDS011;4589;48.690;8.952;2023-02-28T14:13:45;10.80;;;8.10;;
9106;SDS011;4589;48.690;8.952;2023-02-28T14:16:22;11.17;;;8.60;;
9106;SDS011;4589;48.690;8.952;2023-02-28T14:18:50;11.20;;;9.50;;
9106;SDS011;4589;48.690;8.952;2023-02-28T14:21:33;12.23;;;9.20;;
9106;SDS011;4589;48.690;8.952;2023-02-28T14:24:08;17.40;;;10.23;;
9106;SDS011;4589;48.690;8.952;2023-02-28T14:27:05;12.90;;;9.03;;
9106;SDS011;4589;48.690;8.952;2023-02-28T14:35:04;13.43;;;9.63;;
9106;SDS011;4589;48.690;8.952;2023-02-28T14:37:37;11.60;;;9.03;;
9106;SDS011;4589;48.690;8.952;2023-02-28T14:40:11;11.60;;;9.00;;
9106;SDS011;4589;48.690;8.952;2023-02-28T14:42:46;10.57;;;7.60;;
9106;SDS011;4589;48.690;8.952;2023-02-28T14:45:19;10.10;;;7.83;;
9106;SDS011;4589;48.690;8.952;2023-02-28T14:47:46;11.13;;;8.30;;
9106;SDS011;4589;48.690;8.952;2023-02-28T14:50:20;12.30;;;7.97;;
9106;SDS011;4589;48.690;8.952;2023-02-28T14:52:46;10.90;;;8.13;;
9106;SDS011;4589;48.690;8.952;2023-02-28T14:55:13;11.73;;;8.40;;
9106;SDS011;4589;48.690;8.952;2023-02-28T14:57:50;10.20;;;7.50;;
9106;SDS011;4589;48.690;8.952;2023-02-28T15:02:44;10.87;;;8.10;;
9106;SDS011;4589;48.690;8.952;2023-02-28T15:07:42;11.17;;;7.93;;
9106;SDS011;4589;48.690;8.952;2023-02-28T15:12:34;12.33;;;8.13;;
9106;SDS011;4589;48.690;8.952;2023-02-28T15:15:01;9.93;;;7.37;;
9106;SDS011;4589;48.690;8.952;2023-02-28T15:17:27;21.10;;;8.00;;
9106;SDS011;4589;48.690;8.952;2023-02-28T15:19:53;14.50;;;9.50;;
9106;SDS011;4589;48.690;8.952;2023-02-28T15:22:23;10.50;;;7.50;;
9106;SDS011;4589;48.690;8.952;2023-02-28T15:24:53;13.27;;;8.73;;
9106;SDS011;4589;48.690;8.952;2023-02-28T15:27:20;12.90;;;9.00;;
9106;SDS011;4589;48.690;8.952;2023-02-28T15:29:49;12.30;;;8.47;;
9106;SDS011;4589;48.690;8.952;2023-02-28T15:34:51;19.80;;;7.80;;
9106;SDS011;4589;48.690;8.952;2023-02-28T15:42:40;9.47;;;7.67;;
9106;SDS011;4589;48.690;8.952;2023-02-28T15:45:26;9.73;;;8.23;;
9106;SDS011;4589;48.690;8.952;2023-02-28T15:48:03;11.80;;;8.23;;
9106;SDS011;4589;48.690;8.952;2023-02-28T15:50:30;10.10;;;7.60;;
9106;SDS011;4589;48.690;8.952;2023-02-28T15:52:56;11.00;;;8.50;;
9106;SDS011;4589;48.690;8.952;2023-02-28T15:55:23;11.60;;;8.73;;
9106;SDS011;4589;48.690;8.952;2023-02-28T15:57:50;16.27;;;9.20;;
9106;SDS011;4589;48.690;8.952;2023-02-28T16:00:19;15.00;;;8.67;;
9106;SDS011;4589;48.690;8.952;2023-02-28T16:02:49;10.27;;;7.83;;
9106;SDS011;4589;48.690;8.952;2023-02-28T16:07:53;24.53;;;15.27;;
9106;SDS011;4589;48.690;8.952;2023-02-28T16:10:23;22.27;;;13.17;;
9106;SDS011;4589;48.690;8.952;2023-02-28T16:12:52;11.63;;;9.07;;
9106;SDS011;4589;48.690;8.952;2023-02-28T16:15:24;15.60;;;7.80;;
9106;SDS011;4589;48.690;8.952;2023-02-28T16:17:52;12.17;;;8.00;;
9106;SDS011;4589;48.690;8.952;2023-02-28T16:20:23;10.73;;;8.13;;
9106;SDS011;4589;48.690;8.952;2023-02-28T16:22:50;13.47;;;8.00;;
9106;SDS011;4589;48.690;8.952;2023-02-28T16:25:17;12.00;;;9.47;;
9106;SDS011;4589;48.690;8.952;2023-02-28T16:27:45;13.50;;;9.17;;
9106;SDS011;4589;48.690;8.952;2023-02-28T16:30:21;11.83;;;8.50;;
9106;SDS011;4589;48.690;8.952;2023-02-28T16:32:49;11.50;;;9.00;;
9106;SDS011;4589;48.690;8.952;2023-02-28T16:35:16;12.00;;;8.03;;
9106;SDS011;4589;48.690;8.952;2023-02-28T16:37:42;8.80;;;7.60;;
9106;SDS011;4589;48.690;8.952;2023-02-28T16:40:13;16.43;;;8.30;;
9106;SDS011;4589;48.690;8.952;2023-02-28T16:42:41;11.53;;;8.00;;
9106;SDS011;4589;48.690;8.952;2023-02-28T16:45:10;14.00;;;9.03;;
9106;SDS011;4589;48.690;8.952;2023-02-28T16:47:41;11.30;;;8.47;;
9106;SDS011;4589;48.690;8.952;2023-02-28T16:50:17;12.43;;;8.63;;
9106;SDS011;4589;48.690;8.952;2023-02-28T16:52:43;12.23;;;9.00;;
9106;SDS011;4589;48.690;8.952;2023-02-28T16:55:09;13.50;;;9.20;;
9106;SDS011;4589;48.690;8.952;2023-02-28T16:57:35;16.53;;;8.83;;
9106;SDS011;4589;48.690;8.952;2023-02-28T17:00:02;13.27;;;8.80;;
9106;SDS011;4589;48.690;8.952;2023-02-28T17:02:29;15.00;;;7.93;;
9106;SDS011;4589;48.690;8.952;2023-02-28T17:04:55;12.47;;;9.07;;
9106;SDS011;4589;48.690;8.952;2023-02-28T17:07:21;13.33;;;8.90;;
9106;SDS011;4589;48.690;8.952;2023-02-28T17:09:47;11.43;;;9.00;;
9106;SDS011;4589;48.690;8.952;2023-02-28T17:12:13;12.90;;;8.80;;
9106;SDS011;4589;48.690;8.952;2023-02-28T17:14:39;15.00;;;8.50;;
9106;SDS011;4589;48.690;8.952;2023-02-28T17:17:05;12.90;;;8.87;;
9106;SDS011;4589;48.690;8.952;2023-02-28T17:19:31;13.40;;;8.60;;
9106;SDS011;4589;48.690;8.952;2023-02-28T17:21:58;15.33;;;8.87;;
9106;SDS011;4589;48.690;8.952;2023-02-28T17:24:24;13.13;;;8.73;;
9106;SDS011;4589;48.690;8.952;2023-02-28T17:26:49;13.47;;;8.30;;
9106;SDS011;4589;48.690;8.952;2023-02-28T17:29:19;12.20;;;8.37;;